sensor_id;sensor_type;location;lat;lon;timestamp;pressure;altitude;pressure_sealevel;temperature;humidity
56084;BME280;41958;52.416;13.428;2022-08-19T00:00:38;100417.69;;;20.19;100.00
56084;BME280;41958;52.416;13.428;2022-08-19T00:03:04;100423.03;;;20.13;100.00
56084;BME280;41958;52.416;13.428;2022-08-19T00:05:30;100420.66;;;20.08;100.00
56084;BME280;41958;52.416;13.428;2022-08-19T00:07:56;100417.41;;;20.10;100.00
56084;BME280;41958;52.416;13.428;2022-08-19T00:10:21;100405.19;;;20.13;100.00
56084;BME280;41958;52.416;13.428;2022-08-19T00:12:47;100406.09;;;20.06;100.00
56084;BME280;41958;52.416;13.428;2022-08-19T00:15:15;100417.50;;;20.02;100.00
56084;BME280;41958;52.416;13.428;2022-08-19T00:17:42;100419.56;;;19.98;100.00
56084;BME280;41958;52.416;13.428;2022-08-19T00:20:16;100407.03;;;19.96;100.00
56084;BME280;41958;52.416;13.428;2022-08-19T00:22:44;100412.72;;;19.96;100.00
56084;BME280;41958;52.416;13.428;2022-08-19T00:25:09;100418.75;;;19.98;100.00
56084;BME280;41958;52.416;13.428;2022-08-19T00:27:34;100407.47;;;19.94;100.00
56084;BME280;41958;52.416;13.428;2022-08-19T00:30:00;100401.31;;;19.99;100.00
56084;BME280;41958;52.416;13.428;2022-08-19T00:32:26;100401.31;;;19.99;100.00
56084;BME280;41958;52.416;13.428;2022-08-19T00:34:52;100392.09;;;19.92;100.00
56084;BME280;41958;52.416;13.428;2022-08-19T00:37:18;100369.91;;;19.83;100.00
56084;BME280;41958;52.416;13.428;2022-08-19T00:39:44;100378.22;;;20.01;100.00
56084;BME280;41958;52.416;13.428;2022-08-19T00:42:09;100382.38;;;19.93;100.00
56084;BME280;41958;52.416;13.428;2022-08-19T00:44:34;100394.13;;;19.91;100.00
56084;BME280;41958;52.416;13.428;2022-08-19T00:47:00;100391.75;;;19.86;100.00
56084;BME280;41958;52.416;13.428;2022-08-19T00:49:31;100386.09;;;19.86;100.00
56084;BME280;41958;52.416;13.428;2022-08-19T00:52:03;100385.22;;;19.93;100.00
56084;BME280;41958;52.416;13.428;2022-08-19T00:54:30;100352.22;;;19.68;100.00
56084;BME280;41958;52.416;13.428;2022-08-19T00:56:57;100384.81;;;19.91;100.00
56084;BME280;41958;52.416;13.428;2022-08-19T00:59:23;100392.22;;;19.77;100.00
56084;BME280;41958;52.416;13.428;2022-08-19T01:01:48;100385.66;;;19.87;100.00
56084;BME280;41958;52.416;13.428;2022-08-19T01:04:14;100380.09;;;19.77;100.00
56084;BME280;41958;52.416;13.428;2022-08-19T01:06:39;100378.47;;;19.76;100.00
56084;BME280;41958;52.416;13.428;2022-08-19T01:09:07;100378.13;;;19.70;100.00
56084;BME280;41958;52.416;13.428;2022-08-19T01:11:35;100383.50;;;19.61;100.00
56084;BME280;41958;52.416;13.428;2022-08-19T01:14:01;100392.22;;;19.77;100.00
56084;BME280;41958;52.416;13.428;2022-08-19T01:16:28;100411.72;;;19.71;100.00
56084;BME280;41958;52.416;13.428;2022-08-19T01:18:54;100400.88;;;19.63;100.00
56084;BME280;41958;52.416;13.428;2022-08-19T01:23:54;100394.53;;;19.48;100.00
56084;BME280;41958;52.416;13.428;2022-08-19T01:26:22;100386.13;;;19.41;100.00
56084;BME280;41958;52.416;13.428;2022-08-19T01:28:50;100378.38;;;19.45;100.00
56084;BME280;41958;52.416;13.428;2022-08-19T01:31:20;100394.59;;;19.44;100.00
56084;BME280;41958;52.416;13.428;2022-08-19T01:33:48;100375.22;;;19.39;100.00
56084;BME280;41958;52.416;13.428;2022-08-19T01:36:22;100367.91;;;19.42;100.00
56084;BME280;41958;52.416;13.428;2022-08-19T01:38:47;100374.53;;;19.28;100.00
56084;BME280;41958;52.416;13.428;2022-08-19T01:41:14;100373.75;;;19.24;100.00
56084;BME280;41958;52.416;13.428;2022-08-19T01:43:40;100368.09;;;19.24;100.00
56084;BME280;41958;52.416;13.428;2022-08-19T01:46:06;100361.66;;;19.19;100.00
56084;BME280;41958;52.416;13.428;2022-08-19T01:48:37;100407.78;;;19.16;100.00
56084;BME280;41958;52.416;13.428;2022-08-19T01:51:03;100422.81;;;19.10;100.00
56084;BME280;41958;52.416;13.428;2022-08-19T01:53:29;100430.50;;;19.13;100.00
56084;BME280;41958;52.416;13.428;2022-08-19T01:55:55;100414.31;;;19.10;100.00
56084;BME280;41958;52.416;13.428;2022-08-19T01:58:23;100411.66;;;19.37;100.00
56084;BME280;41958;52.416;13.428;2022-08-19T02:00:49;100397.88;;;19.39;100.00
56084;BME280;41958;52.416;13.428;2022-08-19T02:03:15;100391.72;;;19.48;100.00
56084;BME280;41958;52.416;13.428;2022-08-19T02:05:41;100377.16;;;19.46;100.00
56084;BME280;41958;52.416;13.428;2022-08-19T02:08:07;100364.38;;;19.30;100.00
56084;BME280;41958;52.416;13.428;2022-08-19T02:10:33;100345.16;;;20.18;100.00
56084;BME280;41958;52.416;13.428;2022-08-19T02:12:58;100376.50;;;20.07;100.00
56084;BME280;41958;52.416;13.428;2022-08-19T02:15:24;100366.06;;;20.00;100.00
56084;BME280;41958;52.416;13.428;2022-08-19T02:17:50;100368.72;;;20.15;100.00
56084;BME280;41958;52.416;13.428;2022-08-19T02:20:16;100365.44;;;20.16;100.00
56084;BME280;41958;52.416;13.428;2022-08-19T02:22:42;100355.75;;;20.14;100.00
56084;BME280;41958;52.416;13.428;2022-08-19T02:25:09;100367.09;;;20.14;100.00
56084;BME280;41958;52.416;13.428;2022-08-19T02:27:35;100357.38;;;20.15;100.00
56084;BME280;41958;52.416;13.428;2022-08-19T02:30:00;100345.72;;;20.05;100.00
56084;BME280;41958;52.416;13.428;2022-08-19T02:32:26;100331.66;;;19.98;100.00
56084;BME280;41958;52.416;13.428;2022-08-19T02:34:52;100323.75;;;19.82;100.00
56084;BME280;41958;52.416;13.428;2022-08-19T02:37:17;100295.31;;;19.51;100.00
56084;BME280;41958;52.416;13.428;2022-08-19T02:40:03;100298.13;;;19.55;100.00
56084;BME280;41958;52.416;13.428;2022-08-19T02:42:28;100313.13;;;19.52;100.00
56084;BME280;41958;52.416;13.428;2022-08-19T02:44:55;100329.78;;;19.46;100.00
56084;BME280;41958;52.416;13.428;2022-08-19T02:47:20;100329.34;;;19.51;100.00
56084;BME280;41958;52.416;13.428;2022-08-19T02:49:46;100335.47;;;19.46;100.00
56084;BME280;41958;52.416;13.428;2022-08-19T02:52:11;100321.22;;;19.53;100.00
56084;BME280;41958;52.416;13.428;2022-08-19T02:54:37;100318.34;;;19.57;100.00
56084;BME280;41958;52.416;13.428;2022-08-19T02:57:03;100320.06;;;19.47;100.00
56084;BME280;41958;52.416;13.428;2022-08-19T02:59:30;100328.56;;;19.47;100.00
56084;BME280;41958;52.416;13.428;2022-08-19T03:01:56;100318.09;;;19.44;100.00
56084;BME280;41958;52.416;13.428;2022-08-19T03:04:21;100312.00;;;19.46;100.00
56084;BME280;41958;52.416;13.428;2022-08-19T03:06:48;100303.72;;;19.59;100.00
56084;BME280;41958;52.416;13.428;2022-08-19T03:09:13;100305.78;;;19.58;100.00
56084;BME280;41958;52.416;13.428;2022-08-19T03:11:39;100312.72;;;19.53;100.00
56084;BME280;41958;52.416;13.428;2022-08-19T03:14:07;100309.47;;;19.55;100.00
56084;BME280;41958;52.416;13.428;2022-08-19T03:16:39;100298.19;;;19.48;100.00
56084;BME280;41958;52.416;13.428;2022-08-19T03:19:05;100306.28;;;19.49;100.00
56084;BME280;41958;52.416;13.428;2022-08-19T03:21:32;100297.81;;;19.46;100.00
56084;BME280;41958;52.416;13.428;2022-08-19T03:24:02;100311.13;;;19.49;100.00
56084;BME280;41958;52.416;13.428;2022-08-19T03:26:29;100304.34;;;19.43;100.00
56084;BME280;41958;52.416;13.428;2022-08-19T03:28:54;100309.25;;;19.38;100.00
56084;BME280;41958;52.416;13.428;2022-08-19T03:31:21;100303.53;;;19.42;100.00
56084;BME280;41958;52.416;13.428;2022-08-19T03:33:48;100312.91;;;19.35;100.00
56084;BME280;41958;52.416;13.428;2022-08-19T03:36:17;100298.72;;;19.35;100.00
56084;BME280;41958;52.416;13.428;2022-08-19T03:38:47;100290.22;;;19.35;100.00
56084;BME280;41958;52.416;13.428;2022-08-19T03:41:15;100296.31;;;19.34;100.00
56084;BME280;41958;52.416;13.428;2022-08-19T03:43:42;100290.19;;;19.39;100.00
56084;BME280;41958;52.416;13.428;2022-08-19T03:46:11;100294.59;;;19.44;100.00
56084;BME280;41958;52.416;13.428;2022-08-19T03:48:38;100301.50;;;19.43;100.00
56084;BME280;41958;52.416;13.428;2022-08-19T03:51:05;100301.94;;;19.41;100.00
56084;BME280;41958;52.416;13.428;2022-08-19T03:53:31;100292.16;;;19.46;100.00
56084;BME280;41958;52.416;13.428;2022-08-19T03:55:57;100295.84;;;19.43;100.00
56084;BME280;41958;52.416;13.428;2022-08-19T03:58:24;100293.44;;;19.41;100.00
56084;BME280;41958;52.416;13.428;2022-08-19T04:00:50;100291.41;;;19.38;100.00
56084;BME280;41958;52.416;13.428;2022-08-19T04:03:15;100296.38;;;19.30;100.00
56084;BME280;41958;52.416;13.428;2022-08-19T04:05:40;100303.63;;;19.31;100.00
56084;BME280;41958;52.416;13.428;2022-08-19T04:08:05;100309.16;;;19.46;100.00
56084;BME280;41958;52.416;13.428;2022-08-19T04:10:36;100325.84;;;19.36;100.00
56084;BME280;41958;52.416;13.428;2022-08-19T04:13:03;100313.59;;;19.47;100.00
56084;BME280;41958;52.416;13.428;2022-08-19T04:15:29;100316.09;;;19.41;100.00
56084;BME280;41958;52.416;13.428;2022-08-19T04:17:56;100321.69;;;19.48;100.00
56084;BME280;41958;52.416;13.428;2022-08-19T04:20:21;100311.19;;;19.45;100.00
56084;BME280;41958;52.416;13.428;2022-08-19T04:22:46;100328.59;;;19.44;100.00
56084;BME280;41958;52.416;13.428;2022-08-19T04:25:12;100339.56;;;19.42;100.00
56084;BME280;41958;52.416;13.428;2022-08-19T04:27:37;100335.50;;;19.43;100.00
56084;BME280;41958;52.416;13.428;2022-08-19T04:30:03;100328.47;;;19.54;100.00
56084;BME280;41958;52.416;13.428;2022-08-19T04:32:28;100324.00;;;19.57;100.00
56084;BME280;41958;52.416;13.428;2022-08-19T04:34:56;100325.03;;;19.74;100.00
56084;BME280;41958;52.416;13.428;2022-08-19T04:37:25;100321.72;;;19.79;100.00
56084;BME280;41958;52.416;13.428;2022-08-19T04:39:51;100318.13;;;19.75;100.00
56084;BME280;41958;52.416;13.428;2022-08-19T04:42:35;100320.13;;;19.78;100.00
56084;BME280;41958;52.416;13.428;2022-08-19T04:45:10;100324.28;;;19.70;100.00
56084;BME280;41958;52.416;13.428;2022-08-19T04:47:37;100325.88;;;19.71;100.00
56084;BME280;41958;52.416;13.428;2022-08-19T04:50:03;100332.16;;;20.48;100.00
56084;BME280;41958;52.416;13.428;2022-08-19T04:52:28;100315.31;;;20.06;100.00
56084;BME280;41958;52.416;13.428;2022-08-19T04:54:56;100313.72;;;20.05;100.00
56084;BME280;41958;52.416;13.428;2022-08-19T04:57:21;100304.31;;;20.12;100.00
56084;BME280;41958;52.416;13.428;2022-08-19T04:59:46;100312.25;;;20.24;100.00
56084;BME280;41958;52.416;13.428;2022-08-19T05:02:12;100308.31;;;20.14;100.00
56084;BME280;41958;52.416;13.428;2022-08-19T05:04:37;100303.97;;;20.06;100.00
56084;BME280;41958;52.416;13.428;2022-08-19T05:07:04;100310.97;;;19.98;100.00
56084;BME280;41958;52.416;13.428;2022-08-19T05:09:29;100309.28;;;20.04;100.00
56084;BME280;41958;52.416;13.428;2022-08-19T05:11:55;100303.19;;;20.05;100.00
56084;BME280;41958;52.416;13.428;2022-08-19T05:14:20;100302.47;;;19.98;100.00
56084;BME280;41958;52.416;13.428;2022-08-19T05:16:46;100303.97;;;20.06;100.00
56084;BME280;41958;52.416;13.428;2022-08-19T05:19:13;100291.41;;;20.07;100.00
56084;BME280;41958;52.416;13.428;2022-08-19T05:21:56;100289.31;;;20.11;100.00
56084;BME280;41958;52.416;13.428;2022-08-19T05:24:40;100285.47;;;20.25;100.00
56084;BME280;41958;52.416;13.428;2022-08-19T05:27:05;100289.31;;;20.38;100.00
56084;BME280;41958;52.416;13.428;2022-08-19T05:29:32;100290.03;;;20.46;100.00
56084;BME280;41958;52.416;13.428;2022-08-19T05:31:59;100291.16;;;20.52;100.00
56084;BME280;41958;52.416;13.428;2022-08-19T05:34:25;100297.50;;;20.60;100.00
56084;BME280;41958;52.416;13.428;2022-08-19T05:36:53;100303.34;;;20.49;100.00
56084;BME280;41958;52.416;13.428;2022-08-19T05:39:21;100294.78;;;20.53;100.00
56084;BME280;41958;52.416;13.428;2022-08-19T05:41:49;100292.53;;;20.41;100.00
56084;BME280;41958;52.416;13.428;2022-08-19T05:44:15;100292.84;;;20.46;100.00
56084;BME280;41958;52.416;13.428;2022-08-19T05:46:43;100297.47;;;20.36;100.00
56084;BME280;41958;52.416;13.428;2022-08-19T05:49:12;100300.25;;;20.40;100.00
56084;BME280;41958;52.416;13.428;2022-08-19T05:51:37;100296.25;;;20.37;100.00
56084;BME280;41958;52.416;13.428;2022-08-19T05:54:04;100306.78;;;20.37;100.00
56084;BME280;41958;52.416;13.428;2022-08-19T05:56:30;100310.84;;;20.36;100.00
56084;BME280;41958;52.416;13.428;2022-08-19T05:58:57;100319.09;;;20.27;100.00
56084;BME280;41958;52.416;13.428;2022-08-19T06:01:24;100320.09;;;20.40;100.00
56084;BME280;41958;52.416;13.428;2022-08-19T06:03:50;100317.50;;;20.26;100.00
56084;BME280;41958;52.416;13.428;2022-08-19T06:06:16;100323.91;;;20.57;100.00
56084;BME280;41958;52.416;13.428;2022-08-19T06:08:42;100322.56;;;20.69;100.00
56084;BME280;41958;52.416;13.428;2022-08-19T06:13:45;100312.94;;;20.86;100.00
56084;BME280;41958;52.416;13.428;2022-08-19T06:16:12;100302.63;;;20.96;100.00
56084;BME280;41958;52.416;13.428;2022-08-19T06:18:38;100304.97;;;21.01;100.00
56084;BME280;41958;52.416;13.428;2022-08-19T06:21:03;100309.63;;;21.12;100.00
56084;BME280;41958;52.416;13.428;2022-08-19T06:23:29;100311.94;;;21.20;100.00
56084;BME280;41958;52.416;13.428;2022-08-19T06:25:55;100311.25;;;21.13;100.00
56084;BME280;41958;52.416;13.428;2022-08-19T06:28:21;100303.75;;;21.22;100.00
56084;BME280;41958;52.416;13.428;2022-08-19T06:30:48;100308.44;;;21.33;100.00
56084;BME280;41958;52.416;13.428;2022-08-19T06:33:13;100318.75;;;21.47;100.00
56084;BME280;41958;52.416;13.428;2022-08-19T06:35:39;100322.31;;;21.07;100.00
56084;BME280;41958;52.416;13.428;2022-08-19T06:38:05;100327.50;;;21.12;100.00
56084;BME280;41958;52.416;13.428;2022-08-19T06:40:30;100333.72;;;21.27;100.00
56084;BME280;41958;52.416;13.428;2022-08-19T06:42:55;100343.44;;;21.30;100.00
56084;BME280;41958;52.416;13.428;2022-08-19T06:45:22;100349.22;;;21.46;100.00
56084;BME280;41958;52.416;13.428;2022-08-19T06:47:48;100355.19;;;21.52;100.00
56084;BME280;41958;52.416;13.428;2022-08-19T06:50:13;100354.41;;;21.51;100.00
56084;BME280;41958;52.416;13.428;2022-08-19T06:52:39;100350.94;;;21.40;100.00
56084;BME280;41958;52.416;13.428;2022-08-19T06:55:04;100357.22;;;21.31;100.00
56084;BME280;41958;52.416;13.428;2022-08-19T06:57:30;100357.56;;;21.33;100.00
56084;BME280;41958;52.416;13.428;2022-08-19T06:59:57;100357.75;;;21.46;100.00
56084;BME280;41958;52.416;13.428;2022-08-19T07:02:25;100370.69;;;21.47;100.00
56084;BME280;41958;52.416;13.428;2022-08-19T07:04:52;100363.31;;;21.53;100.00
56084;BME280;41958;52.416;13.428;2022-08-19T07:07:19;100354.81;;;21.50;100.00
56084;BME280;41958;52.416;13.428;2022-08-19T07:09:45;100346.13;;;21.61;100.00
56084;BME280;41958;52.416;13.428;2022-08-19T07:12:13;100344.16;;;21.78;100.00
56084;BME280;41958;52.416;13.428;2022-08-19T07:14:41;100348.91;;;21.84;100.00
56084;BME280;41958;52.416;13.428;2022-08-19T07:17:10;100350.88;;;21.87;100.00
56084;BME280;41958;52.416;13.428;2022-08-19T07:19:37;100357.78;;;21.86;100.00
56084;BME280;41958;52.416;13.428;2022-08-19T07:22:05;100360.13;;;22.12;100.00
56084;BME280;41958;52.416;13.428;2022-08-19T07:24:32;100359.59;;;22.17;100.00
56084;BME280;41958;52.416;13.428;2022-08-19T07:26:59;100371.00;;;22.17;100.00
56084;BME280;41958;52.416;13.428;2022-08-19T07:29:31;100372.44;;;22.25;100.00
56084;BME280;41958;52.416;13.428;2022-08-19T07:31:58;100373.84;;;22.17;100.00
56084;BME280;41958;52.416;13.428;2022-08-19T07:34:25;100385.13;;;22.40;100.00
56084;BME280;41958;52.416;13.428;2022-08-19T07:36:50;100374.97;;;22.39;100.00
56084;BME280;41958;52.416;13.428;2022-08-19T07:39:28;100375.91;;;22.53;100.00
56084;BME280;41958;52.416;13.428;2022-08-19T07:41:55;100379.84;;;22.59;100.00
56084;BME280;41958;52.416;13.428;2022-08-19T07:44:20;100387.06;;;22.64;100.00
56084;BME280;41958;52.416;13.428;2022-08-19T07:46:48;100388.91;;;22.54;100.00
56084;BME280;41958;52.416;13.428;2022-08-19T07:49:14;100387.16;;;22.77;100.00
56084;BME280;41958;52.416;13.428;2022-08-19T07:51:48;100377.41;;;22.94;100.00
56084;BME280;41958;52.416;13.428;2022-08-19T07:54:15;100388.09;;;22.90;100.00
56084;BME280;41958;52.416;13.428;2022-08-19T07:56:41;100392.50;;;22.91;100.00
56084;BME280;41958;52.416;13.428;2022-08-19T07:59:06;100394.81;;;22.80;100.00
56084;BME280;41958;52.416;13.428;2022-08-19T08:01:33;100408.09;;;22.86;100.00
56084;BME280;41958;52.416;13.428;2022-08-19T08:03:59;100400.53;;;22.96;100.00
56084;BME280;41958;52.416;13.428;2022-08-19T08:06:42;100405.97;;;22.90;100.00
56084;BME280;41958;52.416;13.428;2022-08-19T08:09:33;100422.16;;;22.94;100.00
56084;BME280;41958;52.416;13.428;2022-08-19T08:12:02;100432.50;;;22.87;100.00
56084;BME280;41958;52.416;13.428;2022-08-19T08:14:35;100427.06;;;22.93;100.00
56084;BME280;41958;52.416;13.428;2022-08-19T08:17:02;100418.25;;;22.87;100.00
56084;BME280;41958;52.416;13.428;2022-08-19T08:19:28;100430.44;;;22.88;100.00
56084;BME280;41958;52.416;13.428;2022-08-19T08:21:56;100421.34;;;23.13;100.00
56084;BME280;41958;52.416;13.428;2022-08-19T08:24:23;100425.69;;;23.18;100.00
56084;BME280;41958;52.416;13.428;2022-08-19T08:26:48;100420.97;;;23.44;100.00
56084;BME280;41958;52.416;13.428;2022-08-19T08:29:14;100423.97;;;23.37;100.00
56084;BME280;41958;52.416;13.428;2022-08-19T08:31:42;100425.22;;;23.52;100.00
56084;BME280;41958;52.416;13.428;2022-08-19T08:34:08;100416.06;;;23.28;100.00
56084;BME280;41958;52.416;13.428;2022-08-19T08:36:38;100433.97;;;23.45;100.00
56084;BME280;41958;52.416;13.428;2022-08-19T08:39:14;100427.19;;;23.55;100.00
56084;BME280;41958;52.416;13.428;2022-08-19T08:41:47;100423.63;;;23.51;100.00
56084;BME280;41958;52.416;13.428;2022-08-19T08:44:18;100429.50;;;23.61;100.00
56084;BME280;41958;52.416;13.428;2022-08-19T08:46:57;100427.25;;;23.52;100.00
56084;BME280;41958;52.416;13.428;2022-08-19T08:49:33;100434.50;;;23.56;100.00
56084;BME280;41958;52.416;13.428;2022-08-19T08:52:08;100429.16;;;23.42;100.00
56084;BME280;41958;52.416;13.428;2022-08-19T08:54:43;100422.22;;;23.43;100.00
56084;BME280;41958;52.416;13.428;2022-08-19T08:57:20;100425.69;;;23.34;100.00
56084;BME280;41958;52.416;13.428;2022-08-19T08:59:50;100434.25;;;23.51;100.00
56084;BME280;41958;52.416;13.428;2022-08-19T09:02:18;100431.38;;;23.51;100.00
56084;BME280;41958;52.416;13.428;2022-08-19T09:04:43;100440.47;;;23.62;100.00
56084;BME280;41958;52.416;13.428;2022-08-19T09:07:20;100438.41;;;23.63;100.00
56084;BME280;41958;52.416;13.428;2022-08-19T09:09:52;100440.19;;;23.56;100.00
56084;BME280;41958;52.416;13.428;2022-08-19T09:15:12;100436.50;;;23.89;100.00
56084;BME280;41958;52.416;13.428;2022-08-19T09:17:38;100436.41;;;23.93;100.00
56084;BME280;41958;52.416;13.428;2022-08-19T09:20:14;100426.59;;;23.94;100.00
56084;BME280;41958;52.416;13.428;2022-08-19T09:22:41;100431.06;;;23.95;100.00
56084;BME280;41958;52.416;13.428;2022-08-19T09:25:12;100429.44;;;23.94;100.00
56084;BME280;41958;52.416;13.428;2022-08-19T09:27:40;100422.44;;;24.11;100.00
56084;BME280;41958;52.416;13.428;2022-08-19T09:30:07;100417.97;;;24.10;100.00
56084;BME280;41958;52.416;13.428;2022-08-19T09:32:33;100430.78;;;24.18;100.00
56084;BME280;41958;52.416;13.428;2022-08-19T09:34:59;100424.19;;;24.34;100.00
56084;BME280;41958;52.416;13.428;2022-08-19T09:37:25;100421.44;;;24.31;98.50
56084;BME280;41958;52.416;13.428;2022-08-19T09:39:51;100423.56;;;24.14;99.42
56084;BME280;41958;52.416;13.428;2022-08-19T09:42:17;100428.91;;;23.99;99.97
56084;BME280;41958;52.416;13.428;2022-08-19T09:44:43;100432.94;;;24.14;99.44
56084;BME280;41958;52.416;13.428;2022-08-19T09:47:09;100429.75;;;24.12;100.00
56084;BME280;41958;52.416;13.428;2022-08-19T09:49:35;100421.97;;;24.13;99.27
56084;BME280;41958;52.416;13.428;2022-08-19T09:52:01;100426.19;;;24.08;100.00
56084;BME280;41958;52.416;13.428;2022-08-19T09:54:26;100417.78;;;24.17;100.00
56084;BME280;41958;52.416;13.428;2022-08-19T09:56:53;100416.94;;;24.04;100.00
56084;BME280;41958;52.416;13.428;2022-08-19T09:59:18;100419.78;;;23.87;100.00
56084;BME280;41958;52.416;13.428;2022-08-19T10:01:44;100415.34;;;23.86;100.00
56084;BME280;41958;52.416;13.428;2022-08-19T10:04:09;100410.88;;;23.85;100.00
56084;BME280;41958;52.416;13.428;2022-08-19T10:06:36;100413.63;;;24.05;99.91
56084;BME280;41958;52.416;13.428;2022-08-19T10:09:03;100412.91;;;24.01;100.00
56084;BME280;41958;52.416;13.428;2022-08-19T10:11:33;100410.47;;;24.29;100.00
56084;BME280;41958;52.416;13.428;2022-08-19T10:14:00;100421.13;;;24.41;100.00
56084;BME280;41958;52.416;13.428;2022-08-19T10:16:26;100418.16;;;24.45;98.62
56084;BME280;41958;52.416;13.428;2022-08-19T10:18:52;100415.16;;;24.36;98.92
56084;BME280;41958;52.416;13.428;2022-08-19T10:21:20;100421.25;;;24.38;99.55
56084;BME280;41958;52.416;13.428;2022-08-19T10:23:48;100417.66;;;24.21;99.93
56084;BME280;41958;52.416;13.428;2022-08-19T10:26:17;100419.91;;;24.13;100.00
56084;BME280;41958;52.416;13.428;2022-08-19T10:28:42;100414.84;;;23.92;100.00
56084;BME280;41958;52.416;13.428;2022-08-19T10:31:11;100420.91;;;23.77;100.00
56084;BME280;41958;52.416;13.428;2022-08-19T10:33:37;100420.13;;;23.60;100.00
56084;BME280;41958;52.416;13.428;2022-08-19T10:36:08;100426.53;;;23.64;100.00
56084;BME280;41958;52.416;13.428;2022-08-19T10:38:34;100420.88;;;23.31;100.00
56084;BME280;41958;52.416;13.428;2022-08-19T10:43:34;100412.59;;;23.20;100.00
56084;BME280;41958;52.416;13.428;2022-08-19T10:46:03;100414.75;;;23.16;100.00
56084;BME280;41958;52.416;13.428;2022-08-19T10:48:30;100421.84;;;23.08;100.00
56084;BME280;41958;52.416;13.428;2022-08-19T10:50:57;100418.53;;;23.10;100.00
56084;BME280;41958;52.416;13.428;2022-08-19T10:53:43;100415.19;;;23.15;100.00
56084;BME280;41958;52.416;13.428;2022-08-19T10:56:08;100422.72;;;23.05;100.00
56084;BME280;41958;52.416;13.428;2022-08-19T10:59:00;100407.47;;;22.95;100.00
56084;BME280;41958;52.416;13.428;2022-08-19T11:01:29;100431.50;;;23.14;100.00
56084;BME280;41958;52.416;13.428;2022-08-19T11:03:55;100433.09;;;23.15;100.00
56084;BME280;41958;52.416;13.428;2022-08-19T11:06:23;100437.66;;;23.29;100.00
56084;BME280;41958;52.416;13.428;2022-08-19T11:08:50;100433.50;;;22.97;100.00
56084;BME280;41958;52.416;13.428;2022-08-19T11:11:15;100428.84;;;22.87;100.00
56084;BME280;41958;52.416;13.428;2022-08-19T11:13:41;100431.69;;;22.87;100.00
56084;BME280;41958;52.416;13.428;2022-08-19T11:16:10;100423.22;;;23.20;100.00
56084;BME280;41958;52.416;13.428;2022-08-19T11:18:40;100432.88;;;23.06;100.00
56084;BME280;41958;52.416;13.428;2022-08-19T11:21:08;100427.53;;;22.92;100.00
56084;BME280;41958;52.416;13.428;2022-08-19T11:23:33;100426.91;;;23.00;100.00
56084;BME280;41958;52.416;13.428;2022-08-19T11:25:59;100428.84;;;22.87;100.00
56084;BME280;41958;52.416;13.428;2022-08-19T11:28:26;100439.84;;;23.05;100.00
56084;BME280;41958;52.416;13.428;2022-08-19T11:30:51;100440.69;;;23.02;100.00
56084;BME280;41958;52.416;13.428;2022-08-19T11:33:16;100434.72;;;22.96;100.00
56084;BME280;41958;52.416;13.428;2022-08-19T11:35:42;100427.59;;;23.04;100.00
56084;BME280;41958;52.416;13.428;2022-08-19T11:38:07;100425.72;;;22.98;100.00
56084;BME280;41958;52.416;13.428;2022-08-19T11:40:32;100442.22;;;23.06;100.00
56084;BME280;41958;52.416;13.428;2022-08-19T11:42:58;100443.91;;;23.04;100.00
56084;BME280;41958;52.416;13.428;2022-08-19T11:45:25;100448.00;;;23.03;100.00
56084;BME280;41958;52.416;13.428;2022-08-19T11:47:50;100442.75;;;22.85;100.00
56084;BME280;41958;52.416;13.428;2022-08-19T11:50:16;100458.91;;;22.71;100.00
56084;BME280;41958;52.416;13.428;2022-08-19T11:52:41;100454.38;;;22.74;100.00
56084;BME280;41958;52.416;13.428;2022-08-19T11:55:08;100461.59;;;22.79;100.00
56084;BME280;41958;52.416;13.428;2022-08-19T11:57:33;100467.91;;;22.70;100.00
56084;BME280;41958;52.416;13.428;2022-08-19T11:59:58;100462.03;;;22.77;100.00
56084;BME280;41958;52.416;13.428;2022-08-19T12:02:23;100464.38;;;22.82;100.00
56084;BME280;41958;52.416;13.428;2022-08-19T12:04:49;100461.00;;;22.87;100.00
56084;BME280;41958;52.416;13.428;2022-08-19T12:07:14;100468.06;;;22.99;100.00
56084;BME280;41958;52.416;13.428;2022-08-19T12:09:40;100467.44;;;23.08;100.00
56084;BME280;41958;52.416;13.428;2022-08-19T12:12:05;100465.53;;;23.21;100.00
56084;BME280;41958;52.416;13.428;2022-08-19T12:14:31;100471.84;;;23.46;100.00
56084;BME280;41958;52.416;13.428;2022-08-19T12:16:57;100467.31;;;23.48;100.00
56084;BME280;41958;52.416;13.428;2022-08-19T12:19:23;100473.44;;;23.63;100.00
56084;BME280;41958;52.416;13.428;2022-08-19T12:21:49;100472.63;;;23.63;100.00
56084;BME280;41958;52.416;13.428;2022-08-19T12:24:15;100473.75;;;23.82;99.02
56084;BME280;41958;52.416;13.428;2022-08-19T12:26:40;100473.31;;;23.83;99.66
56084;BME280;41958;52.416;13.428;2022-08-19T12:29:06;100472.81;;;23.72;98.59
56084;BME280;41958;52.416;13.428;2022-08-19T12:31:33;100481.78;;;23.87;97.94
56084;BME280;41958;52.416;13.428;2022-08-19T12:33:59;100478.06;;;23.73;98.98
56084;BME280;41958;52.416;13.428;2022-08-19T12:36:25;100486.88;;;23.79;98.54
56084;BME280;41958;52.416;13.428;2022-08-19T12:38:51;100484.47;;;23.94;99.77
56084;BME280;41958;52.416;13.428;2022-08-19T12:41:17;100483.31;;;24.21;96.45